createdAt,value
2022-12-31T00:03:46.338Z,98.66
2022-12-31T00:07:49.083Z,99.11
2022-12-31T00:11:50.464Z,98.98
2022-12-31T00:15:51.867Z,99.11
2022-12-31T00:19:53.231Z,98.92
2022-12-31T00:23:56.013Z,98.86
2022-12-31T00:27:57.407Z,99.30
2022-12-31T00:31:58.769Z,99.35
2022-12-31T00:36:07.450Z,98.71
2022-12-31T00:40:11.189Z,98.20
2022-12-31T00:44:12.589Z,98.27
2022-12-31T00:48:13.969Z,98.30
2022-12-31T00:52:15.344Z,98.12
2022-12-31T00:56:19.059Z,97.69
2022-12-31T01:00:20.505Z,97.74
2022-12-31T01:04:21.893Z,97.93
2022-12-31T01:08:23.275Z,97.84
2022-12-31T01:12:26.018Z,97.93
2022-12-31T01:16:28.090Z,98.13
2022-12-31T01:20:29.596Z,97.52
2022-12-31T01:24:30.940Z,98.50
2022-12-31T01:28:33.828Z,98.22
2022-12-31T01:32:35.177Z,97.89
2022-12-31T01:36:36.993Z,98.14
2022-12-31T01:40:39.246Z,97.70
2022-12-31T01:44:53.101Z,97.95
2022-12-31T01:48:56.451Z,97.64
2022-12-31T01:52:59.095Z,97.56
2022-12-31T01:57:00.469Z,97.56
2022-12-31T02:01:04.529Z,97.84
2022-12-31T02:05:10.684Z,97.77
2022-12-31T02:09:12.128Z,97.73
2022-12-31T02:13:14.098Z,98.40
2022-12-31T02:17:21.652Z,98.20
2022-12-31T02:21:34.142Z,97.51
2022-12-31T02:25:52.902Z,97.67
2022-12-31T02:30:01.896Z,97.80
2022-12-31T02:34:06.332Z,97.84
2022-12-31T02:38:08.720Z,97.66
2022-12-31T02:42:10.383Z,97.84
2022-12-31T02:46:17.462Z,97.71
2022-12-31T02:50:25.842Z,97.90
2022-12-31T02:54:31.944Z,97.80
2022-12-31T02:58:37.860Z,97.69
2022-12-31T03:02:41.770Z,97.56
2022-12-31T03:06:43.663Z,98.08
2022-12-31T03:10:45.037Z,97.81
2022-12-31T03:14:46.546Z,98.14
2022-12-31T03:18:49.267Z,98.36
2022-12-31T03:22:50.599Z,97.85
2022-12-31T03:26:51.963Z,97.82
2022-12-31T03:30:55.076Z,97.96
2022-12-31T03:34:57.783Z,97.47
2022-12-31T03:38:59.194Z,97.94
2022-12-31T03:43:00.882Z,98.03
2022-12-31T03:47:02.250Z,97.88
2022-12-31T03:51:05.028Z,97.48
2022-12-31T03:55:07.047Z,97.42
2022-12-31T03:59:08.409Z,97.24
2022-12-31T04:03:09.777Z,96.29
2022-12-31T04:07:12.516Z,95.59
2022-12-31T04:11:20.475Z,95.73
2022-12-31T04:15:22.135Z,95.22
2022-12-31T04:19:23.561Z,95.55
2022-12-31T04:23:26.262Z,95.68
2022-12-31T04:27:27.630Z,95.37
2022-12-31T04:31:29.092Z,95.75
2022-12-31T04:35:30.493Z,95.58
2022-12-31T04:39:33.279Z,95.91
2022-12-31T04:43:34.681Z,95.70
2022-12-31T04:47:36.136Z,95.42
2022-12-31T04:51:37.623Z,95.83
2022-12-31T04:55:41.878Z,95.64
2022-12-31T04:59:43.236Z,95.35
2022-12-31T05:03:44.658Z,95.21
2022-12-31T05:07:46.052Z,95.59
2022-12-31T05:11:48.807Z,94.94
2022-12-31T05:15:50.507Z,94.19
2022-12-31T05:19:51.894Z,94.35
2022-12-31T05:23:53.297Z,93.08
2022-12-31T05:27:56.308Z,93.37
2022-12-31T05:31:57.732Z,93.19
2022-12-31T05:35:59.230Z,92.62
2022-12-31T05:40:00.604Z,91.40
2022-12-31T05:44:03.495Z,91.47
2022-12-31T05:48:05.207Z,90.57
2022-12-31T05:52:07.067Z,91.16
2022-12-31T05:56:08.485Z,91.18
2022-12-31T06:00:12.020Z,91.01
2022-12-31T06:04:13.416Z,91.13
2022-12-31T06:08:14.819Z,90.82
2022-12-31T06:12:16.226Z,91.13
2022-12-31T06:16:19.061Z,91.34
2022-12-31T06:20:20.482Z,91.22
2022-12-31T06:24:21.935Z,90.95
2022-12-31T06:28:23.355Z,90.89
2022-12-31T06:32:26.130Z,91.11
2022-12-31T06:36:27.705Z,91.13
2022-12-31T06:40:29.064Z,91.74
2022-12-31T06:44:30.453Z,91.09
2022-12-31T06:48:33.229Z,90.73
2022-12-31T06:52:34.604Z,89.93
2022-12-31T06:56:36.200Z,90.09
2022-12-31T07:00:37.616Z,89.53
2022-12-31T07:04:50.577Z,88.93
2022-12-31T07:08:56.456Z,89.03
2022-12-31T07:13:19.940Z,89.35
2022-12-31T07:17:28.272Z,89.02
2022-12-31T07:21:33.473Z,88.98
2022-12-31T07:25:35.690Z,89.19
2022-12-31T07:29:53.662Z,88.59
2022-12-31T07:33:58.483Z,89.41
2022-12-31T07:38:05.761Z,88.95
2022-12-31T07:42:11.662Z,89.05
2022-12-31T07:46:17.249Z,89.21
2022-12-31T07:50:19.239Z,87.89
2022-12-31T07:54:22.030Z,88.47
2022-12-31T07:58:26.114Z,87.43
2022-12-31T08:02:36.880Z,87.58
2022-12-31T08:06:43.379Z,88.01
2022-12-31T08:10:51.478Z,87.39
2022-12-31T08:14:53.041Z,87.76
2022-12-31T08:18:54.613Z,88.00
2022-12-31T08:23:11.362Z,88.06
2022-12-31T08:27:20.902Z,87.75
2022-12-31T08:31:25.742Z,87.23
2022-12-31T08:35:33.281Z,85.39
2022-12-31T08:39:58.593Z,85.08
2022-12-31T08:44:08.279Z,84.87
2022-12-31T08:48:16.506Z,83.99
2022-12-31T08:52:21.764Z,83.75
2022-12-31T08:56:26.821Z,82.70
2022-12-31T09:00:30.476Z,81.90
2022-12-31T09:04:40.535Z,81.73
2022-12-31T09:08:47.437Z,81.40
2022-12-31T09:12:54.990Z,81.17
2022-12-31T09:17:00.530Z,80.60
2022-12-31T09:21:02.072Z,79.90
2022-12-31T09:25:03.673Z,79.92
2022-12-31T09:29:10.102Z,80.60
2022-12-31T09:33:16.572Z,79.35
2022-12-31T09:37:20.852Z,79.53
2022-12-31T09:41:40.164Z,79.00
2022-12-31T09:45:55.492Z,79.38
2022-12-31T09:50:11.751Z,78.82
2022-12-31T09:54:23.662Z,77.62
2022-12-31T09:58:32.432Z,76.76
2022-12-31T10:02:47.706Z,75.07
2022-12-31T10:06:54.074Z,75.65
2022-12-31T10:10:58.761Z,75.42
2022-12-31T10:15:21.237Z,75.50
2022-12-31T10:19:30.256Z,75.57
2022-12-31T10:23:50.205Z,72.87
2022-12-31T10:27:59.005Z,72.30
2022-12-31T10:32:10.996Z,72.09
2022-12-31T10:36:18.273Z,72.70
2022-12-31T10:40:24.652Z,73.05
2022-12-31T10:44:43.739Z,72.64
2022-12-31T10:48:57.416Z,73.52
2022-12-31T10:53:09.272Z,72.57
2022-12-31T10:57:34.713Z,72.30
2022-12-31T11:01:42.065Z,72.46
2022-12-31T11:06:07.352Z,72.29
2022-12-31T11:10:20.467Z,73.41
2022-12-31T11:14:34.912Z,72.31
2022-12-31T11:18:41.805Z,73.36
2022-12-31T11:22:54.098Z,71.81
2022-12-31T11:27:10.636Z,71.59
2022-12-31T11:31:16.397Z,70.90
2022-12-31T11:35:23.251Z,70.32
2022-12-31T11:39:34.723Z,70.69
2022-12-31T11:43:39.355Z,70.95
2022-12-31T11:48:28.037Z,71.69
2022-12-31T11:52:30.064Z,71.43
2022-12-31T11:56:34.545Z,71.35
2022-12-31T12:00:38.245Z,71.60
2022-12-31T12:04:39.597Z,71.96
2022-12-31T12:08:42.374Z,70.85
2022-12-31T12:12:43.723Z,71.66
2022-12-31T12:16:46.587Z,72.06
2022-12-31T12:20:48.041Z,71.46
2022-12-31T12:24:52.648Z,70.53
2022-12-31T12:28:54.042Z,70.98
2022-12-31T12:32:58.368Z,70.36
2022-12-31T12:37:00.087Z,70.89
2022-12-31T12:41:03.768Z,70.98
2022-12-31T12:45:08.101Z,72.58
2022-12-31T12:49:18.422Z,72.37
2022-12-31T12:53:36.537Z,71.18
2022-12-31T12:57:43.489Z,71.30
2022-12-31T13:01:47.992Z,72.90
2022-12-31T13:05:58.284Z,73.54
2022-12-31T13:10:15.657Z,73.15
2022-12-31T13:14:21.712Z,74.56
2022-12-31T13:18:28.744Z,73.84
2022-12-31T13:22:34.393Z,74.49
2022-12-31T13:26:39.159Z,73.76
2022-12-31T13:30:42.560Z,75.23
2022-12-31T13:34:44.741Z,75.00
2022-12-31T13:38:49.121Z,73.71
2022-12-31T13:42:54.535Z,75.00
2022-12-31T13:46:59.035Z,75.43
2022-12-31T13:51:03.103Z,75.87
2022-12-31T13:55:10.257Z,75.69
2022-12-31T13:59:15.374Z,76.17
2022-12-31T14:03:20.806Z,76.31
2022-12-31T14:07:29.110Z,76.25
2022-12-31T14:11:43.461Z,75.87
2022-12-31T14:15:49.626Z,77.54
2022-12-31T14:19:56.024Z,80.30
2022-12-31T14:24:03.999Z,81.03
2022-12-31T14:28:09.979Z,81.79
2022-12-31T14:32:28.389Z,84.76
2022-12-31T14:36:34.377Z,86.07
2022-12-31T14:40:41.737Z,84.89
2022-12-31T14:44:52.308Z,87.33
2022-12-31T14:48:58.989Z,88.06
2022-12-31T14:53:07.030Z,88.64
2022-12-31T14:57:17.836Z,87.40
2022-12-31T15:01:20.811Z,86.07
2022-12-31T15:05:23.524Z,85.92
2022-12-31T15:09:39.742Z,85.75
2022-12-31T15:13:48.809Z,85.04
2022-12-31T15:17:57.294Z,84.05
2022-12-31T15:22:04.807Z,83.72
2022-12-31T15:26:06.733Z,83.29
2022-12-31T15:30:28.350Z,82.44
2022-12-31T15:34:31.973Z,82.97
2022-12-31T15:38:34.819Z,82.73
2022-12-31T15:42:47.167Z,83.95
2022-12-31T15:46:54.006Z,83.67
2022-12-31T15:50:57.892Z,84.49
2022-12-31T15:55:00.234Z,85.78
2022-12-31T15:59:03.546Z,86.62
2022-12-31T16:03:18.080Z,87.68
2022-12-31T16:07:21.149Z,87.86
2022-12-31T16:11:22.903Z,88.65
2022-12-31T16:15:25.367Z,88.60
2022-12-31T16:19:31.387Z,88.28
2022-12-31T16:23:40.417Z,86.76
2022-12-31T16:27:43.853Z,87.42
2022-12-31T16:31:46.391Z,86.03
2022-12-31T16:35:54.074Z,85.56
2022-12-31T16:40:16.618Z,85.90
2022-12-31T16:44:24.693Z,85.44
2022-12-31T16:48:26.114Z,85.71
2022-12-31T16:52:30.624Z,84.79
2022-12-31T16:56:34.756Z,84.98
2022-12-31T17:00:36.532Z,84.85
2022-12-31T17:04:45.098Z,84.09
2022-12-31T17:08:50.146Z,83.82
2022-12-31T17:17:21.844Z,84.41
2022-12-31T17:21:25.178Z,83.76
2022-12-31T17:25:27.538Z,83.35
2022-12-31T17:29:30.284Z,83.00
2022-12-31T17:33:31.872Z,82.84
2022-12-31T17:37:33.224Z,82.99
2022-12-31T17:41:34.623Z,81.87
2022-12-31T17:45:37.947Z,81.58
2022-12-31T17:49:40.764Z,80.61
2022-12-31T17:53:42.218Z,80.76
2022-12-31T17:57:47.400Z,80.76
2022-12-31T18:01:50.203Z,79.71
2022-12-31T18:05:51.685Z,79.77
2022-12-31T18:09:53.110Z,79.03
2022-12-31T18:13:54.519Z,79.66
2022-12-31T18:17:57.220Z,79.30
2022-12-31T18:21:58.683Z,79.87
2022-12-31T18:26:00.076Z,79.71
2022-12-31T18:30:04.739Z,79.16
2022-12-31T18:34:11.728Z,79.43
2022-12-31T18:38:14.202Z,78.95
2022-12-31T18:42:17.256Z,79.46
2022-12-31T18:46:22.944Z,79.90
2022-12-31T18:50:25.675Z,79.55
2022-12-31T18:54:27.051Z,80.43
2022-12-31T18:58:28.377Z,79.84
2022-12-31T19:02:29.772Z,79.58
2022-12-31T19:06:32.485Z,79.33
2022-12-31T19:10:33.924Z,79.41
2022-12-31T19:14:35.366Z,78.68
2022-12-31T19:18:36.860Z,78.73
2022-12-31T19:22:39.595Z,79.33
2022-12-31T19:26:43.444Z,79.92
2022-12-31T19:30:45.429Z,81.52
2022-12-31T19:34:46.768Z,82.42
2022-12-31T19:38:49.520Z,83.02
2022-12-31T19:42:51.632Z,82.76
2022-12-31T19:46:53.037Z,83.48
2022-12-31T19:50:54.424Z,83.70
2022-12-31T19:54:57.164Z,84.69
2022-12-31T19:59:02.531Z,85.09
2022-12-31T20:03:04.122Z,85.14
2022-12-31T20:07:05.655Z,86.02
2022-12-31T20:11:09.162Z,86.82
2022-12-31T20:15:10.678Z,86.94
2022-12-31T20:19:12.103Z,87.42
2022-12-31T20:23:13.511Z,87.49
2022-12-31T20:27:18.579Z,90.04
2022-12-31T20:31:21.306Z,89.86
2022-12-31T20:35:22.751Z,90.36
2022-12-31T20:39:24.141Z,90.81
2022-12-31T20:43:29.533Z,91.71
2022-12-31T20:47:30.910Z,91.74
2022-12-31T20:51:33.646Z,92.15
2022-12-31T20:55:36.939Z,92.59
2022-12-31T20:59:39.823Z,92.41
2022-12-31T21:08:04.177Z,92.12
2022-12-31T21:12:05.672Z,92.50
2022-12-31T21:16:08.593Z,94.95
2022-12-31T21:20:10.688Z,95.43
2022-12-31T21:24:12.066Z,96.23
2022-12-31T21:28:13.477Z,95.84
2022-12-31T21:32:16.289Z,96.73
2022-12-31T21:36:17.672Z,95.25
2022-12-31T21:40:19.035Z,95.86
2022-12-31T21:44:21.071Z,95.25
2022-12-31T21:48:23.828Z,94.82
2022-12-31T21:52:25.231Z,93.95
2022-12-31T21:56:26.610Z,93.54
2022-12-31T22:00:43.837Z,92.55
2022-12-31T22:05:03.166Z,92.40
2022-12-31T22:09:06.218Z,93.20
2022-12-31T22:13:07.630Z,93.39
2022-12-31T22:17:09.038Z,92.65
2022-12-31T22:21:18.126Z,91.86
2022-12-31T22:25:20.038Z,91.81
2022-12-31T22:29:21.407Z,92.05
2022-12-31T22:33:22.845Z,92.47
2022-12-31T22:37:55.697Z,93.14
2022-12-31T22:41:46.999Z,93.44
2022-12-31T22:45:48.371Z,93.83
2022-12-31T22:49:49.775Z,94.98
2022-12-31T22:53:52.498Z,94.98
2022-12-31T22:57:53.826Z,94.41
2022-12-31T23:01:55.230Z,94.69
2022-12-31T23:05:56.602Z,93.90
2022-12-31T23:09:59.333Z,93.33
2022-12-31T23:14:00.765Z,93.20
2022-12-31T23:18:02.166Z,93.78
2022-12-31T23:22:03.539Z,92.74
2022-12-31T23:26:06.305Z,93.78
2022-12-31T23:30:08.209Z,93.88
2022-12-31T23:34:09.661Z,93.45
2022-12-31T23:38:11.402Z,93.85
2022-12-31T23:42:14.143Z,94.22
2022-12-31T23:46:16.369Z,94.74
2022-12-31T23:50:17.790Z,94.06
2022-12-31T23:54:19.169Z,94.28
2022-12-31T23:58:21.930Z,94.52
